createdAt,value
2018-12-16T00:02:19.267Z,93.10
2018-12-16T00:04:52.236Z,93.20
2018-12-16T00:07:25.592Z,93.10
2018-12-16T00:09:56.482Z,93.20
2018-12-16T00:12:27.372Z,93.30
2018-12-16T00:14:58.242Z,93.30
2018-12-16T00:17:29.147Z,93.40
2018-12-16T00:20:00.032Z,93.40
2018-12-16T00:22:30.972Z,93.60
2018-12-16T00:25:02.191Z,93.60
2018-12-16T00:27:33.174Z,93.70
2018-12-16T00:30:04.382Z,93.70
2018-12-16T00:32:35.352Z,93.80
2018-12-16T00:35:06.453Z,93.90
2018-12-16T00:37:37.342Z,94.00
2018-12-16T00:40:08.891Z,94.20
2018-12-16T00:42:39.791Z,94.10
2018-12-16T00:45:10.692Z,94.20
2018-12-16T00:47:41.632Z,94.30
2018-12-16T00:50:12.592Z,94.40
2018-12-16T00:52:43.867Z,94.50
2018-12-16T00:55:14.851Z,94.60
2018-12-16T00:57:45.874Z,94.60
2018-12-16T01:00:17.662Z,94.80
2018-12-16T01:02:48.631Z,94.90
2018-12-16T01:05:19.571Z,95.00
2018-12-16T01:07:50.611Z,94.90
2018-12-16T01:10:21.467Z,94.80
2018-12-16T01:12:52.551Z,95.00
2018-12-16T01:15:23.352Z,95.10
2018-12-16T01:17:54.386Z,95.10
2018-12-16T01:20:25.502Z,95.40
2018-12-16T01:22:56.387Z,95.30
2018-12-16T01:25:27.151Z,95.30
2018-12-16T01:27:58.272Z,95.30
2018-12-16T01:30:29.142Z,95.20
2018-12-16T01:33:00.042Z,95.30
2018-12-16T01:35:30.887Z,95.20
2018-12-16T01:38:01.841Z,95.10
2018-12-16T01:40:32.726Z,95.10
2018-12-16T01:43:03.677Z,95.50
2018-12-16T01:45:34.531Z,95.10
2018-12-16T01:48:05.459Z,95.00
2018-12-16T01:50:36.262Z,95.20
2018-12-16T01:53:07.641Z,95.20
2018-12-16T01:55:38.472Z,95.40
2018-12-16T01:58:09.562Z,95.30
2018-12-16T02:00:40.562Z,95.40
2018-12-16T02:03:11.561Z,95.40
2018-12-16T02:05:42.431Z,95.30
2018-12-16T02:08:13.271Z,95.40
2018-12-16T02:10:44.101Z,95.30
2018-12-16T02:13:14.973Z,95.40
2018-12-16T02:15:45.752Z,95.40
2018-12-16T02:18:16.592Z,95.20
2018-12-16T02:20:47.501Z,95.70
2018-12-16T02:23:18.312Z,95.60
2018-12-16T02:25:49.192Z,95.80
2018-12-16T02:28:20.196Z,95.80
2018-12-16T02:30:51.092Z,95.90
2018-12-16T02:33:21.884Z,95.80
2018-12-16T02:35:52.701Z,95.80
2018-12-16T02:38:23.561Z,95.90
2018-12-16T02:40:54.451Z,95.90
2018-12-16T02:43:25.362Z,95.60
2018-12-16T02:45:56.267Z,95.80
2018-12-16T02:48:27.308Z,96.30
2018-12-16T02:50:58.112Z,95.90
2018-12-16T02:53:29.422Z,96.00
2018-12-16T02:56:00.317Z,96.00
2018-12-16T02:58:31.272Z,96.20
2018-12-16T03:01:02.086Z,96.20
2018-12-16T03:03:32.962Z,96.00
2018-12-16T03:06:03.911Z,96.00
2018-12-16T03:08:34.863Z,96.10
2018-12-16T03:11:05.917Z,96.00
2018-12-16T03:13:36.763Z,96.10
2018-12-16T03:16:07.681Z,96.10
2018-12-16T03:18:38.592Z,96.20
2018-12-16T03:21:09.398Z,96.30
2018-12-16T03:23:40.253Z,96.40
2018-12-16T03:26:11.122Z,96.30
2018-12-16T03:28:48.522Z,96.10
2018-12-16T03:31:19.273Z,96.20
2018-12-16T03:33:50.053Z,96.30
2018-12-16T03:36:20.860Z,96.40
2018-12-16T03:38:51.683Z,96.50
2018-12-16T03:41:22.579Z,96.50
2018-12-16T03:43:53.412Z,96.50
2018-12-16T03:46:24.262Z,96.70
2018-12-16T03:48:55.071Z,96.40
2018-12-16T03:51:25.983Z,96.60
2018-12-16T03:53:57.372Z,96.50
2018-12-16T03:56:28.622Z,96.80
2018-12-16T03:59:18.771Z,96.50
2018-12-16T04:01:57.552Z,96.40
2018-12-16T04:04:29.221Z,96.60
2018-12-16T04:07:00.032Z,96.70
2018-12-16T04:09:30.931Z,96.60
2018-12-16T04:12:01.765Z,96.60
2018-12-16T04:14:32.625Z,96.90
2018-12-16T04:17:03.452Z,96.80
2018-12-16T04:19:34.293Z,96.90
2018-12-16T04:22:05.123Z,97.00
2018-12-16T04:24:35.982Z,97.00
2018-12-16T04:27:06.809Z,96.80
2018-12-16T04:29:37.847Z,97.00
2018-12-16T04:32:08.682Z,97.10
2018-12-16T04:34:39.585Z,96.90
2018-12-16T04:37:10.412Z,97.10
2018-12-16T04:39:41.312Z,97.00
2018-12-16T04:42:12.121Z,97.20
2018-12-16T04:44:43.042Z,97.30
2018-12-16T04:47:14.049Z,99.30
2018-12-16T04:49:44.967Z,99.90
2018-12-16T04:52:15.748Z,97.20
2018-12-16T04:54:47.077Z,97.10
2018-12-16T04:57:17.852Z,96.90
2018-12-16T04:59:49.149Z,96.90
2018-12-16T05:02:19.992Z,97.10
2018-12-16T05:04:50.852Z,97.20
2018-12-16T05:07:21.602Z,97.00
2018-12-16T05:09:52.896Z,97.10
2018-12-16T05:12:23.732Z,97.00
2018-12-16T05:14:55.012Z,97.00
2018-12-16T05:17:26.155Z,96.90
2018-12-16T05:19:57.031Z,96.90
2018-12-16T05:22:28.017Z,96.90
2018-12-16T05:24:59.047Z,96.90
2018-12-16T05:27:30.617Z,97.00
2018-12-16T05:30:01.702Z,97.20
2018-12-16T05:32:32.871Z,96.80
2018-12-16T05:35:03.983Z,96.70
2018-12-16T05:37:34.882Z,96.80
2018-12-16T05:40:06.183Z,96.60
2018-12-16T05:42:37.187Z,96.40
2018-12-16T05:45:08.236Z,96.60
2018-12-16T05:47:39.140Z,96.50
2018-12-16T05:50:10.591Z,96.50
2018-12-16T05:52:41.441Z,96.60
2018-12-16T05:55:13.032Z,96.70
2018-12-16T05:57:43.797Z,99.90
2018-12-16T06:00:15.081Z,96.50
2018-12-16T06:02:46.097Z,96.20
2018-12-16T06:05:17.141Z,96.00
2018-12-16T06:07:48.092Z,95.80
2018-12-16T06:10:19.152Z,96.10
2018-12-16T06:12:49.991Z,96.10
2018-12-16T06:15:20.892Z,95.80
2018-12-16T06:17:51.791Z,95.80
2018-12-16T06:20:22.775Z,95.70
2018-12-16T06:22:53.593Z,95.60
2018-12-16T06:25:24.573Z,95.80
2018-12-16T06:27:55.533Z,95.60
2018-12-16T06:30:27.963Z,95.80
2018-12-16T06:32:58.937Z,98.10
2018-12-16T06:35:30.046Z,95.80
2018-12-16T06:38:00.941Z,95.90
2018-12-16T06:40:32.463Z,95.80
2018-12-16T06:43:03.231Z,95.90
2018-12-16T06:45:34.327Z,95.80
2018-12-16T06:48:05.211Z,95.80
2018-12-16T06:50:36.207Z,95.80
2018-12-16T06:53:07.166Z,95.80
2018-12-16T06:55:43.220Z,95.80
2018-12-16T06:58:12.032Z,96.10
2018-12-16T07:00:43.301Z,95.80
2018-12-16T07:03:14.292Z,95.80
2018-12-16T07:05:45.351Z,95.60
2018-12-16T07:08:16.131Z,95.90
2018-12-16T07:10:47.076Z,95.50
2018-12-16T07:13:17.933Z,95.30
2018-12-16T07:15:48.917Z,95.30
2018-12-16T07:18:19.781Z,95.10
2018-12-16T07:20:50.678Z,95.10
2018-12-16T07:23:21.546Z,95.00
2018-12-16T07:25:52.471Z,95.10
2018-12-16T07:28:23.326Z,95.00
2018-12-16T07:30:54.407Z,95.20
2018-12-16T07:33:25.501Z,94.90
2018-12-16T07:35:56.606Z,95.10
2018-12-16T07:38:27.396Z,94.50
2018-12-16T07:40:58.516Z,94.70
2018-12-16T07:43:29.536Z,94.80
2018-12-16T07:46:00.532Z,94.60
2018-12-16T07:48:31.720Z,94.90
2018-12-16T07:51:02.696Z,94.70
2018-12-16T07:53:33.952Z,94.50
2018-12-16T07:56:05.516Z,94.40
2018-12-16T07:58:36.330Z,94.30
2018-12-16T08:01:07.554Z,94.40
2018-12-16T08:03:38.582Z,94.60
2018-12-16T08:06:09.531Z,94.60
2018-12-16T08:08:40.481Z,94.60
2018-12-16T08:11:11.471Z,94.70
2018-12-16T08:13:42.392Z,94.60
2018-12-16T08:16:13.501Z,94.40
2018-12-16T08:18:44.511Z,94.20
2018-12-16T08:21:15.533Z,94.10
2018-12-16T08:23:46.577Z,94.30
2018-12-16T08:26:17.706Z,94.20
2018-12-16T08:28:48.826Z,94.20
2018-12-16T08:31:20.281Z,93.90
2018-12-16T08:33:51.401Z,93.70
2018-12-16T08:36:22.331Z,93.90
2018-12-16T08:38:53.426Z,93.80
2018-12-16T08:41:24.332Z,93.70
2018-12-16T08:43:55.316Z,93.60
2018-12-16T08:46:26.612Z,93.20
2018-12-16T08:48:57.363Z,93.40
2018-12-16T08:51:28.426Z,93.60
2018-12-16T08:53:59.497Z,93.40
2018-12-16T08:56:30.871Z,93.60
2018-12-16T08:59:01.822Z,93.30
2018-12-16T09:01:32.971Z,93.40
2018-12-16T09:04:04.122Z,92.40
2018-12-16T09:11:35.748Z,97.10
2018-12-16T09:14:06.937Z,93.40
2018-12-16T09:16:38.327Z,92.80
2018-12-16T09:19:09.257Z,93.20
2018-12-16T09:21:40.257Z,92.90
2018-12-16T09:24:11.421Z,93.10
2018-12-16T09:26:43.667Z,92.60
2018-12-16T09:29:14.618Z,92.60
2018-12-16T09:31:45.967Z,93.00
2018-12-16T09:34:17.053Z,94.10
2018-12-16T09:36:48.113Z,95.40
2018-12-16T09:39:19.364Z,96.30
2018-12-16T09:41:50.441Z,96.70
2018-12-16T09:44:21.405Z,96.50
2018-12-16T09:46:52.530Z,97.00
2018-12-16T09:49:23.510Z,96.90
2018-12-16T09:51:54.772Z,98.80
2018-12-16T09:54:25.772Z,98.90
2018-12-16T09:56:57.267Z,98.60
2018-12-16T09:59:28.227Z,97.90
2018-12-16T10:01:59.562Z,98.70
2018-12-16T10:04:30.797Z,98.20
2018-12-16T10:07:02.034Z,98.40
2018-12-16T10:09:33.067Z,97.80
2018-12-16T10:12:04.117Z,97.40
2018-12-16T10:14:35.257Z,96.70
2018-12-16T10:17:06.287Z,96.40
2018-12-16T10:19:37.280Z,97.00
2018-12-16T10:22:08.438Z,96.70
2018-12-16T10:24:39.432Z,97.10
2018-12-16T10:27:10.457Z,97.20
2018-12-16T10:29:41.532Z,97.60
2018-12-16T10:32:13.123Z,97.40
2018-12-16T10:34:44.121Z,97.10
2018-12-16T10:37:15.496Z,97.60
2018-12-16T10:39:46.553Z,97.20
2018-12-16T10:42:17.791Z,96.40
2018-12-16T10:44:48.882Z,96.90
2018-12-16T10:47:19.942Z,97.00
2018-12-16T10:49:50.962Z,97.80
2018-12-16T10:52:22.118Z,97.50
2018-12-16T10:54:58.442Z,97.60
2018-12-16T10:57:26.907Z,97.60
2018-12-16T10:59:57.993Z,98.00
2018-12-16T11:02:29.253Z,97.10
2018-12-16T11:05:00.432Z,96.30
2018-12-16T11:07:31.560Z,97.10
2018-12-16T11:10:02.687Z,98.10
2018-12-16T11:12:34.382Z,98.90
2018-12-16T11:15:05.774Z,98.30
2018-12-16T11:17:36.932Z,99.90
2018-12-16T11:20:08.047Z,99.90
2018-12-16T11:22:39.308Z,99.90
2018-12-16T11:25:13.037Z,99.90
2018-12-16T11:27:44.148Z,99.90
2018-12-16T11:30:15.237Z,99.90
2018-12-16T11:32:46.557Z,99.90
2018-12-16T11:35:17.497Z,99.90
2018-12-16T11:37:48.612Z,99.90
2018-12-16T11:40:19.892Z,99.90
2018-12-16T11:42:50.995Z,99.90
2018-12-16T11:45:22.027Z,99.90
2018-12-16T11:47:53.497Z,99.90
2018-12-16T11:50:24.788Z,99.90
2018-12-16T11:52:57.153Z,99.90
2018-12-16T11:55:28.517Z,99.90
2018-12-16T11:58:00.141Z,99.90
2018-12-16T12:00:31.073Z,99.90
2018-12-16T12:03:02.513Z,99.90
2018-12-16T12:05:35.663Z,99.90
2018-12-16T12:08:07.042Z,99.60
2018-12-16T12:10:38.293Z,99.90
2018-12-16T12:13:09.383Z,99.90
2018-12-16T12:15:40.349Z,99.90
2018-12-16T12:18:11.668Z,99.90
2018-12-16T12:20:42.708Z,99.90
2018-12-16T12:23:13.797Z,99.90
2018-12-16T12:25:44.843Z,99.90
2018-12-16T12:28:16.164Z,99.90
2018-12-16T12:30:48.163Z,99.60
2018-12-16T12:33:19.364Z,99.20
2018-12-16T12:35:50.418Z,99.50
2018-12-16T12:38:21.898Z,99.20
2018-12-16T12:40:52.960Z,99.30
2018-12-16T12:43:25.031Z,99.70
2018-12-16T12:45:56.298Z,99.90
2018-12-16T12:48:27.243Z,99.90
2018-12-16T12:50:58.423Z,99.90
2018-12-16T12:53:29.586Z,99.90
2018-12-16T12:56:00.499Z,99.50
2018-12-16T12:58:31.958Z,99.30
2018-12-16T13:01:03.108Z,99.70
2018-12-16T13:03:35.598Z,99.60
2018-12-16T13:06:07.070Z,99.20
2018-12-16T13:08:38.258Z,99.70
2018-12-16T13:11:09.378Z,99.70
2018-12-16T13:13:40.795Z,99.60
2018-12-16T13:16:11.907Z,99.30
2018-12-16T13:18:42.988Z,99.70
2018-12-16T13:21:14.015Z,99.90
2018-12-16T13:23:45.168Z,99.50
2018-12-16T13:26:16.318Z,99.60
2018-12-16T13:28:47.499Z,99.00
2018-12-16T13:31:18.684Z,99.40
2018-12-16T13:33:50.085Z,99.60
2018-12-16T13:36:21.354Z,99.90
2018-12-16T13:38:52.787Z,99.50
2018-12-16T13:41:24.055Z,99.70
2018-12-16T13:43:55.308Z,99.60
2018-12-16T13:46:26.533Z,99.30
2018-12-16T13:48:57.513Z,99.50
2018-12-16T13:51:28.511Z,99.20
2018-12-16T13:53:59.629Z,99.00
2018-12-16T13:56:30.785Z,98.80
2018-12-16T13:59:02.743Z,98.80
2018-12-16T14:01:33.828Z,98.60
2018-12-16T14:04:05.184Z,99.00
2018-12-16T14:06:36.293Z,98.80
2018-12-16T14:09:08.653Z,98.50
2018-12-16T14:11:39.624Z,98.30
2018-12-16T14:14:10.723Z,98.90
2018-12-16T14:16:41.884Z,99.30
2018-12-16T14:19:13.113Z,99.20
2018-12-16T14:21:44.515Z,99.30
2018-12-16T14:24:15.602Z,99.60
2018-12-16T14:26:46.733Z,99.10
2018-12-16T14:29:17.980Z,98.60
2018-12-16T14:31:49.019Z,98.90
2018-12-16T14:34:20.311Z,99.50
2018-12-16T14:36:51.798Z,99.10
2018-12-16T14:39:22.908Z,99.40
2018-12-16T14:41:54.049Z,98.70
2018-12-16T14:44:25.173Z,98.70
2018-12-16T14:46:56.143Z,98.90
2018-12-16T14:49:27.293Z,99.30
2018-12-16T14:51:58.323Z,99.10
2018-12-16T14:54:29.403Z,99.00
2018-12-16T14:57:00.352Z,99.20
2018-12-16T14:59:32.088Z,98.80
2018-12-16T15:02:03.118Z,98.90
2018-12-16T15:04:34.268Z,98.80
2018-12-16T15:07:05.248Z,98.50
2018-12-16T15:09:36.343Z,98.40
2018-12-16T15:12:07.468Z,98.60
2018-12-16T15:14:38.662Z,98.80
2018-12-16T15:17:09.974Z,98.40
2018-12-16T15:19:41.153Z,97.70
2018-12-16T15:22:12.188Z,98.00
2018-12-16T15:24:43.287Z,98.10
2018-12-16T15:27:14.548Z,98.50
2018-12-16T15:29:45.768Z,98.50
2018-12-16T15:32:16.901Z,98.20
2018-12-16T15:34:48.193Z,98.00
2018-12-16T15:37:19.218Z,97.90
2018-12-16T15:39:50.423Z,98.30
2018-12-16T15:42:21.598Z,98.50
2018-12-16T15:44:53.788Z,98.40
2018-12-16T15:47:24.793Z,98.80
2018-12-16T15:49:56.014Z,99.10
2018-12-16T15:52:27.139Z,98.60
2018-12-16T15:54:58.568Z,98.40
2018-12-16T15:57:29.659Z,98.70
2018-12-16T16:00:01.308Z,98.80
2018-12-16T16:02:32.388Z,98.90
2018-12-16T16:05:03.708Z,98.90
2018-12-16T16:07:34.803Z,98.40
2018-12-16T16:10:06.760Z,98.30
2018-12-16T16:12:37.798Z,98.70
2018-12-16T16:15:09.875Z,98.30
2018-12-16T16:17:42.047Z,98.50
2018-12-16T16:20:13.198Z,98.60
2018-12-16T16:22:44.228Z,98.20
2018-12-16T16:25:16.837Z,98.30
2018-12-16T16:27:48.033Z,98.30
2018-12-16T16:30:19.143Z,98.30
2018-12-16T16:32:50.229Z,98.10
2018-12-16T16:35:22.413Z,97.90
2018-12-16T16:38:00.477Z,97.90
2018-12-16T16:40:26.862Z,97.80
2018-12-16T16:42:58.018Z,98.10
2018-12-16T16:45:29.216Z,98.00
2018-12-16T16:48:00.133Z,98.00
2018-12-16T16:50:32.293Z,98.60
2018-12-16T16:53:03.397Z,98.10
2018-12-16T16:55:34.503Z,98.30
2018-12-16T16:58:05.575Z,98.50
2018-12-16T17:00:37.090Z,98.20
2018-12-16T17:03:10.403Z,97.90
2018-12-16T17:05:41.654Z,97.90
2018-12-16T17:08:12.634Z,98.20
2018-12-16T17:13:19.573Z,98.90
2018-12-16T17:15:52.318Z,98.40
2018-12-16T17:18:23.443Z,98.30
2018-12-16T17:20:54.645Z,98.20
2018-12-16T17:23:25.723Z,98.80
2018-12-16T17:25:56.833Z,97.70
2018-12-16T17:28:27.833Z,97.50
2018-12-16T17:30:59.113Z,97.90
2018-12-16T17:33:30.183Z,97.90
2018-12-16T17:36:01.593Z,97.60
2018-12-16T17:38:32.733Z,97.60
2018-12-16T17:41:04.279Z,97.40
2018-12-16T17:43:35.303Z,97.40
2018-12-16T17:46:06.492Z,97.60
2018-12-16T17:48:37.696Z,98.30
2018-12-16T17:51:08.743Z,98.00
2018-12-16T17:53:41.011Z,98.20
2018-12-16T17:56:12.308Z,98.30
2018-12-16T17:58:43.254Z,97.80
2018-12-16T18:01:14.603Z,98.20
2018-12-16T18:03:45.703Z,98.20
2018-12-16T18:06:16.993Z,98.50
2018-12-16T18:08:48.043Z,98.60
2018-12-16T18:11:19.205Z,98.50
2018-12-16T18:13:50.293Z,98.60
2018-12-16T18:16:21.348Z,98.90
2018-12-16T18:18:52.303Z,98.70
2018-12-16T18:21:23.147Z,98.90
2018-12-16T18:23:53.994Z,99.20
2018-12-16T18:26:25.468Z,98.90
2018-12-16T18:28:56.493Z,98.60
2018-12-16T18:31:27.303Z,98.80
2018-12-16T18:33:58.679Z,98.80
2018-12-16T18:36:30.054Z,99.00
2018-12-16T18:39:00.823Z,98.60
2018-12-16T18:41:33.493Z,98.90
2018-12-16T18:44:04.728Z,98.70
2018-12-16T18:46:36.087Z,98.70
2018-12-16T18:49:07.934Z,99.00
2018-12-16T18:51:39.038Z,98.80
2018-12-16T18:54:10.058Z,99.00
2018-12-16T18:56:41.248Z,99.30
2018-12-16T18:59:12.178Z,98.90
2018-12-16T19:01:43.337Z,99.10
2018-12-16T19:04:14.298Z,98.80
2018-12-16T19:06:45.913Z,98.70
2018-12-16T19:09:16.793Z,98.60
2018-12-16T19:11:47.828Z,98.60
2018-12-16T19:14:18.988Z,98.30
2018-12-16T19:16:49.987Z,98.60
2018-12-16T19:19:21.538Z,98.60
2018-12-16T19:21:52.667Z,98.70
2018-12-16T19:24:23.767Z,98.40
2018-12-16T19:26:58.228Z,98.10
2018-12-16T19:29:27.893Z,98.20
2018-12-16T19:31:58.943Z,98.20
2018-12-16T19:34:29.887Z,97.80
2018-12-16T19:37:01.278Z,98.20
2018-12-16T19:39:32.170Z,98.40
2018-12-16T19:42:03.219Z,98.80
2018-12-16T19:44:34.177Z,99.00
2018-12-16T19:47:09.300Z,99.40
2018-12-16T19:49:40.307Z,98.80
2018-12-16T19:52:13.570Z,99.20
2018-12-16T19:54:44.979Z,99.30
2018-12-16T19:57:16.122Z,99.20
2018-12-16T19:59:47.098Z,99.30
2018-12-16T20:02:18.503Z,99.20
2018-12-16T20:04:53.551Z,99.00
2018-12-16T20:07:25.222Z,98.80
2018-12-16T20:09:55.932Z,98.60
2018-12-16T20:12:26.862Z,99.20
2018-12-16T20:14:58.042Z,99.40
2018-12-16T20:17:29.125Z,99.90
2018-12-16T20:20:00.107Z,99.90
2018-12-16T20:22:30.947Z,99.90
2018-12-16T20:25:01.787Z,99.90
2018-12-16T20:27:32.988Z,99.90
2018-12-16T20:30:04.072Z,99.90
2018-12-16T20:32:36.003Z,99.90
2018-12-16T20:35:07.547Z,99.90
2018-12-16T20:37:38.937Z,99.90
2018-12-16T20:40:10.048Z,99.90
2018-12-16T20:42:41.097Z,99.90
2018-12-16T20:45:11.987Z,99.90
2018-12-16T20:57:40.127Z,99.90
2018-12-16T21:00:12.053Z,99.90
2018-12-16T21:05:22.008Z,99.90
2018-12-16T21:07:53.000Z,99.90
2018-12-16T21:10:24.129Z,99.90
2018-12-16T21:13:02.327Z,99.90
2018-12-16T21:15:40.208Z,99.90
2018-12-16T21:18:16.417Z,99.90
2018-12-16T21:28:35.608Z,99.90
2018-12-16T21:31:06.767Z,99.90
2018-12-16T21:33:37.772Z,99.90
2018-12-16T21:36:08.762Z,99.90
2018-12-16T21:38:39.822Z,99.90
2018-12-16T21:41:10.972Z,99.90
2018-12-16T21:43:42.067Z,99.90
2018-12-16T21:46:13.012Z,99.90
2018-12-16T21:48:43.919Z,99.90
2018-12-16T21:51:14.982Z,99.90
2018-12-16T21:53:45.896Z,99.90
2018-12-16T21:56:16.942Z,99.90
2018-12-16T21:58:48.037Z,99.90
2018-12-16T22:01:18.892Z,99.90
2018-12-16T22:03:49.831Z,99.90
2018-12-16T22:06:20.711Z,99.90
2018-12-16T22:08:51.886Z,99.90
2018-12-16T22:11:22.870Z,99.90
2018-12-16T22:13:53.932Z,99.90
2018-12-16T22:16:24.936Z,99.90
2018-12-16T22:18:55.913Z,99.90
2018-12-16T22:21:26.729Z,99.90
2018-12-16T22:23:57.822Z,99.90
2018-12-16T22:26:28.686Z,99.90
2018-12-16T22:28:59.586Z,99.90
2018-12-16T22:31:30.726Z,99.90
2018-12-16T22:34:01.915Z,99.90
2018-12-16T22:36:33.061Z,99.90
2018-12-16T22:39:05.127Z,99.90
2018-12-16T22:41:35.913Z,99.90
2018-12-16T22:44:07.103Z,99.90
2018-12-16T22:46:38.502Z,99.90
2018-12-16T22:49:09.507Z,99.90
2018-12-16T22:51:40.384Z,99.90
2018-12-16T22:54:11.402Z,99.90
2018-12-16T22:56:42.387Z,99.90
2018-12-16T22:59:13.291Z,99.90
2018-12-16T23:01:44.207Z,99.90
2018-12-16T23:04:15.323Z,99.90
2018-12-16T23:06:46.527Z,99.90
2018-12-16T23:09:17.947Z,99.90
2018-12-16T23:11:48.902Z,99.90
2018-12-16T23:14:20.063Z,99.90
2018-12-16T23:16:51.144Z,99.90
2018-12-16T23:19:22.426Z,99.90
2018-12-16T23:21:53.388Z,99.90
2018-12-16T23:24:25.518Z,99.90
2018-12-16T23:26:56.631Z,99.90
2018-12-16T23:29:27.790Z,99.90
2018-12-16T23:31:58.746Z,99.90
2018-12-16T23:34:29.711Z,99.90
2018-12-16T23:37:00.916Z,99.90
2018-12-16T23:39:32.031Z,99.90
2018-12-16T23:42:02.896Z,99.90
2018-12-16T23:44:33.961Z,99.90
2018-12-16T23:47:04.866Z,99.90
2018-12-16T23:49:35.866Z,99.90
2018-12-16T23:52:06.701Z,99.90
2018-12-16T23:54:37.561Z,99.90
2018-12-16T23:57:08.341Z,99.90
2018-12-16T23:59:39.080Z,99.90
